Hakui, Japan
Current Conditions -  °F | °C
As of 4:00 PM on Friday 24 Oct 2014 (Local Time) from RJNT Reporting Station
Scattered Clouds Scattered Clouds  
Wind Chill: 66°   Ceiling: Unl
Heat Index: 66°   Visibility: 6mi
Dew Point: 50°   Wind: 6mph
Humidity: 56%   Direction: 30°NNE
Pressure: 30.12"   Gusts: NA
Location:  36.9°N, 136.77°E
Report Text: RJNT 240700Z 03005KT 350V070 9999 FEW030 SCT040 19/10 Q1020
Loading
Personal Weather Stations






























Interactive Weather Map
Tropical Storm Tracking
New forecast layout! Learn more

10-Day Weather Forecast

Advertisements
Track Severe Weather on mobile